createdAt,value
2019-03-31T00:01:07.686Z,99.90
2019-03-31T00:03:27.005Z,99.90
2019-03-31T00:05:56.638Z,99.90
2019-03-31T00:08:26.289Z,99.90
2019-03-31T00:10:55.917Z,99.90
2019-03-31T00:13:26.263Z,99.90
2019-03-31T00:15:55.952Z,99.90
2019-03-31T00:18:25.612Z,99.90
2019-03-31T00:20:55.232Z,99.90
2019-03-31T00:23:24.883Z,99.90
2019-03-31T00:25:54.506Z,99.90
2019-03-31T00:28:24.248Z,99.90
2019-03-31T00:30:54.329Z,99.90
2019-03-31T00:33:24.030Z,99.90
2019-03-31T00:35:53.662Z,99.90
2019-03-31T00:38:23.312Z,99.90
2019-03-31T00:40:52.934Z,99.90
2019-03-31T00:43:22.664Z,99.90
2019-03-31T00:45:52.293Z,99.90
2019-03-31T00:48:21.940Z,99.90
2019-03-31T00:50:51.561Z,99.90
2019-03-31T00:53:21.222Z,99.90
2019-03-31T00:55:50.838Z,99.90
2019-03-31T00:58:20.489Z,99.90
2019-03-31T01:00:52.594Z,99.90
2019-03-31T01:03:22.793Z,99.90
2019-03-31T01:05:52.413Z,99.90
2019-03-31T01:08:22.809Z,99.90
2019-03-31T01:10:52.603Z,99.90
2019-03-31T01:13:22.409Z,99.90
2019-03-31T01:15:53.277Z,99.90
2019-03-31T01:18:23.265Z,99.90
2019-03-31T01:20:52.886Z,99.90
2019-03-31T01:23:22.617Z,99.90
2019-03-31T01:25:52.313Z,99.90
2019-03-31T01:28:22.106Z,99.90
2019-03-31T01:30:51.790Z,99.90
2019-03-31T01:33:21.493Z,99.90
2019-03-31T01:35:51.117Z,99.90
2019-03-31T01:38:20.834Z,99.90
2019-03-31T01:40:50.829Z,99.90
2019-03-31T01:43:20.548Z,99.90
2019-03-31T01:45:50.175Z,99.90
2019-03-31T01:48:19.826Z,99.90
2019-03-31T01:50:49.449Z,99.90
2019-03-31T01:53:19.126Z,99.90
2019-03-31T01:55:48.825Z,99.90
2019-03-31T01:58:18.508Z,99.90
2019-03-31T02:00:49.780Z,99.90
2019-03-31T02:03:19.493Z,99.90
2019-03-31T02:05:49.118Z,99.90
2019-03-31T02:08:18.941Z,99.90
2019-03-31T02:10:48.574Z,99.90
2019-03-31T02:13:18.234Z,99.90
2019-03-31T02:15:47.853Z,99.90
2019-03-31T02:18:17.569Z,99.90
2019-03-31T02:20:47.198Z,99.90
2019-03-31T02:23:16.978Z,99.90
2019-03-31T02:25:46.607Z,99.90
2019-03-31T02:28:16.253Z,99.90
2019-03-31T02:30:45.978Z,99.90
2019-03-31T02:33:15.674Z,99.90
2019-03-31T02:38:07.290Z,99.90
2019-03-31T02:40:36.939Z,99.90
2019-03-31T02:43:06.568Z,99.90
2019-03-31T02:45:36.209Z,99.90
2019-03-31T02:48:05.902Z,99.90
2019-03-31T02:50:50.335Z,99.90
2019-03-31T02:53:20.791Z,99.90
2019-03-31T02:55:51.079Z,99.90
2019-03-31T02:58:20.940Z,99.90
2019-03-31T03:00:50.648Z,99.90
2019-03-31T03:03:20.938Z,99.90
2019-03-31T03:05:50.649Z,99.90
2019-03-31T03:08:20.420Z,99.90
2019-03-31T03:10:51.673Z,99.90
2019-03-31T03:13:24.711Z,99.90
2019-03-31T03:16:08.981Z,99.90
2019-03-31T03:18:38.746Z,99.90
2019-03-31T03:21:08.399Z,99.90
2019-03-31T03:23:38.028Z,99.90
2019-03-31T03:26:07.691Z,99.90
2019-03-31T03:28:37.313Z,99.90
2019-03-31T03:31:14.597Z,99.90
2019-03-31T03:33:38.302Z,99.90
2019-03-31T03:36:07.943Z,99.90
2019-03-31T03:38:37.575Z,99.90
2019-03-31T03:41:07.285Z,99.90
2019-03-31T03:43:54.280Z,99.90
2019-03-31T03:46:08.254Z,99.90
2019-03-31T03:48:37.878Z,99.90
2019-03-31T03:51:07.532Z,99.90
2019-03-31T03:53:37.151Z,99.90
2019-03-31T03:56:07.042Z,99.90
2019-03-31T03:58:36.737Z,99.90
2019-03-31T04:01:08.263Z,99.90
2019-03-31T04:03:37.898Z,99.90
2019-03-31T04:06:07.614Z,99.90
2019-03-31T04:08:37.242Z,99.90
2019-03-31T04:11:12.097Z,99.90
2019-03-31T04:13:41.726Z,99.90
2019-03-31T04:16:11.438Z,99.90
2019-03-31T04:18:41.132Z,99.90
2019-03-31T04:21:10.783Z,99.90
2019-03-31T04:23:40.404Z,99.90
2019-03-31T04:26:10.194Z,99.90
2019-03-31T04:28:39.818Z,99.90
2019-03-31T04:31:09.469Z,99.90
2019-03-31T04:33:50.465Z,99.90
2019-03-31T04:36:10.366Z,99.90
2019-03-31T04:38:39.990Z,99.90
2019-03-31T04:41:09.646Z,99.90
2019-03-31T04:43:39.361Z,99.90
2019-03-31T04:46:09.008Z,99.90
2019-03-31T04:48:38.702Z,99.90
2019-03-31T04:51:08.425Z,99.90
2019-03-31T04:53:39.746Z,99.90
2019-03-31T04:56:09.443Z,99.90
2019-03-31T04:58:39.076Z,99.90
2019-03-31T05:01:08.987Z,99.90
2019-03-31T05:03:38.687Z,99.90
2019-03-31T05:06:08.325Z,99.90
2019-03-31T05:08:38.021Z,99.90
2019-03-31T05:11:07.714Z,99.90
2019-03-31T05:13:37.300Z,99.90
2019-03-31T05:16:06.947Z,99.90
2019-03-31T05:18:36.575Z,99.90
2019-03-31T05:21:06.225Z,99.90
2019-03-31T05:23:36.007Z,99.90
2019-03-31T05:26:05.649Z,99.90
2019-03-31T05:28:35.277Z,99.90
2019-03-31T05:31:04.997Z,99.90
2019-03-31T05:33:34.639Z,99.90
2019-03-31T05:36:04.350Z,99.90
2019-03-31T05:38:33.988Z,99.90
2019-03-31T05:41:03.677Z,99.90
2019-03-31T05:43:33.331Z,99.90
2019-03-31T05:46:02.953Z,99.90
2019-03-31T05:48:35.042Z,99.90
2019-03-31T05:51:04.737Z,99.90
2019-03-31T05:53:34.525Z,99.90
2019-03-31T05:56:04.217Z,99.90
2019-03-31T05:58:33.878Z,99.90
2019-03-31T06:01:03.578Z,99.90
2019-03-31T06:03:33.260Z,99.90
2019-03-31T06:06:03.541Z,99.90
2019-03-31T06:08:33.237Z,99.90
2019-03-31T06:11:03.837Z,99.90
2019-03-31T06:13:34.023Z,99.90
2019-03-31T06:16:03.850Z,99.90
2019-03-31T06:18:34.035Z,99.90
2019-03-31T06:21:04.254Z,99.90
2019-03-31T06:23:36.027Z,99.90
2019-03-31T06:26:06.233Z,99.90
2019-03-31T06:28:58.106Z,99.90
2019-03-31T06:31:27.978Z,99.90
2019-03-31T06:33:57.657Z,99.90
2019-03-31T06:36:27.290Z,99.90
2019-03-31T06:38:56.946Z,99.90
2019-03-31T06:41:26.565Z,99.90
2019-03-31T06:43:58.289Z,99.90
2019-03-31T06:46:27.917Z,99.90
2019-03-31T06:48:57.560Z,99.90
2019-03-31T06:51:27.191Z,99.90
2019-03-31T06:53:56.920Z,99.90
2019-03-31T06:56:26.549Z,99.90
2019-03-31T06:58:56.195Z,99.90
2019-03-31T07:01:25.835Z,99.90
2019-03-31T07:03:55.477Z,99.90
2019-03-31T07:06:25.105Z,99.90
2019-03-31T07:08:54.764Z,99.90
2019-03-31T07:11:24.385Z,99.90
2019-03-31T07:13:54.108Z,99.90
2019-03-31T07:16:23.807Z,99.90
2019-03-31T07:18:53.450Z,99.90
2019-03-31T07:21:23.080Z,99.90
2019-03-31T07:23:52.757Z,99.90
2019-03-31T07:26:22.385Z,99.90
2019-03-31T07:28:52.033Z,99.90
2019-03-31T07:31:21.757Z,99.90
2019-03-31T07:33:51.414Z,99.90
2019-03-31T07:36:21.040Z,99.90
2019-03-31T07:38:50.742Z,99.90
2019-03-31T07:41:20.499Z,99.90
2019-03-31T07:43:50.293Z,99.90
2019-03-31T07:46:32.458Z,99.90
2019-03-31T07:49:02.113Z,97.00
2019-03-31T07:51:31.758Z,93.90
2019-03-31T07:54:03.082Z,94.90
2019-03-31T07:56:32.777Z,92.60
2019-03-31T07:59:02.443Z,92.90
2019-03-31T08:01:32.075Z,92.80
2019-03-31T08:04:01.806Z,90.60
2019-03-31T08:06:31.513Z,88.10
2019-03-31T08:09:01.169Z,85.10
2019-03-31T08:11:30.806Z,86.40
2019-03-31T08:14:00.535Z,90.00
2019-03-31T08:16:30.161Z,83.60
2019-03-31T08:18:59.819Z,82.80
2019-03-31T08:21:29.455Z,81.70
2019-03-31T08:23:59.117Z,81.00
2019-03-31T08:26:28.749Z,80.10
2019-03-31T08:28:58.660Z,78.00
2019-03-31T08:31:28.441Z,82.80
2019-03-31T08:33:58.121Z,80.10
2019-03-31T08:36:27.758Z,78.20
2019-03-31T08:38:57.424Z,78.90
2019-03-31T08:41:27.057Z,78.00
2019-03-31T08:43:56.718Z,74.30
2019-03-31T08:46:26.354Z,76.00
2019-03-31T08:48:56.014Z,73.40
2019-03-31T08:51:25.645Z,74.50
2019-03-31T08:53:55.354Z,72.40
2019-03-31T08:56:24.992Z,73.70
2019-03-31T08:58:54.653Z,69.40
2019-03-31T09:01:24.291Z,70.50
2019-03-31T09:03:55.657Z,73.00
2019-03-31T09:06:25.289Z,73.70
2019-03-31T09:08:54.949Z,67.30
2019-03-31T09:11:24.594Z,75.30
2019-03-31T09:13:54.353Z,73.90
2019-03-31T09:16:23.981Z,67.10
2019-03-31T09:18:53.714Z,71.20
2019-03-31T09:21:23.373Z,69.90
2019-03-31T09:23:53.191Z,68.30
2019-03-31T09:26:22.821Z,68.90
2019-03-31T09:28:52.476Z,70.40
2019-03-31T09:31:22.105Z,67.60
2019-03-31T09:33:51.765Z,69.50
2019-03-31T09:36:21.402Z,66.20
2019-03-31T09:38:51.736Z,68.80
2019-03-31T09:41:21.502Z,70.40
2019-03-31T09:43:51.261Z,65.80
2019-03-31T09:46:20.920Z,67.20
2019-03-31T09:48:50.551Z,65.40
2019-03-31T09:51:20.209Z,67.40
2019-03-31T09:53:49.888Z,69.50
2019-03-31T09:56:19.615Z,66.40
2019-03-31T09:58:49.254Z,68.20
2019-03-31T10:01:18.915Z,63.70
2019-03-31T10:03:49.822Z,64.30
2019-03-31T10:06:29.698Z,65.30
2019-03-31T10:08:50.884Z,62.60
2019-03-31T10:11:20.595Z,64.30
2019-03-31T10:13:50.314Z,62.10
2019-03-31T10:16:19.977Z,64.60
2019-03-31T10:18:49.605Z,59.70
2019-03-31T10:21:19.261Z,62.50
2019-03-31T10:23:48.927Z,62.80
2019-03-31T10:26:30.966Z,61.20
2019-03-31T10:28:49.848Z,62.70
2019-03-31T10:31:19.582Z,60.20
2019-03-31T10:33:49.301Z,60.40
2019-03-31T10:36:18.957Z,62.50
2019-03-31T10:38:48.593Z,60.00
2019-03-31T10:41:18.251Z,60.20
2019-03-31T10:43:47.930Z,58.30
2019-03-31T10:46:17.593Z,56.60
2019-03-31T10:48:47.229Z,59.30
2019-03-31T10:51:16.887Z,59.60
2019-03-31T10:53:46.661Z,58.00
2019-03-31T10:56:16.323Z,58.00
2019-03-31T10:58:45.960Z,58.00
2019-03-31T11:01:15.617Z,56.70
2019-03-31T11:03:45.289Z,57.00
2019-03-31T11:06:14.945Z,57.60
2019-03-31T11:08:44.654Z,57.40
2019-03-31T11:11:14.310Z,56.60
2019-03-31T11:13:45.447Z,55.50
2019-03-31T11:16:15.245Z,54.50
2019-03-31T11:18:44.885Z,54.60
2019-03-31T11:21:16.182Z,55.00
2019-03-31T11:23:45.825Z,54.40
2019-03-31T11:26:15.505Z,53.30
2019-03-31T11:28:45.128Z,56.00
2019-03-31T11:31:17.815Z,53.70
2019-03-31T11:33:46.749Z,54.70
2019-03-31T11:36:16.405Z,54.70
2019-03-31T11:38:46.051Z,53.60
2019-03-31T11:41:15.693Z,52.90
2019-03-31T11:43:45.438Z,53.40
2019-03-31T11:46:15.089Z,52.70
2019-03-31T11:48:44.725Z,54.10
2019-03-31T11:51:14.376Z,54.70
2019-03-31T11:53:44.009Z,53.00
2019-03-31T11:56:13.733Z,50.90
2019-03-31T11:58:43.372Z,48.30
2019-03-31T12:01:13.089Z,49.60
2019-03-31T12:03:43.794Z,49.50
2019-03-31T12:06:13.526Z,49.30
2019-03-31T12:08:43.153Z,49.30
2019-03-31T12:11:12.974Z,48.20
2019-03-31T12:13:42.645Z,45.00
2019-03-31T12:16:12.370Z,44.10
2019-03-31T12:18:41.997Z,41.10
2019-03-31T12:21:11.650Z,40.30
2019-03-31T12:23:41.387Z,39.70
2019-03-31T12:26:11.025Z,39.50
2019-03-31T12:28:40.653Z,40.10
2019-03-31T12:31:10.645Z,40.70
2019-03-31T12:33:40.465Z,38.30
2019-03-31T12:36:10.120Z,38.60
2019-03-31T12:38:39.745Z,37.30
2019-03-31T12:41:09.565Z,40.40
2019-03-31T12:43:39.907Z,39.60
2019-03-31T12:46:15.725Z,39.60
2019-03-31T12:48:45.345Z,39.60
2019-03-31T12:51:14.993Z,38.40
2019-03-31T12:53:44.882Z,40.50
2019-03-31T12:56:14.602Z,41.60
2019-03-31T12:58:44.229Z,40.10
2019-03-31T13:01:13.963Z,38.20
2019-03-31T13:03:43.651Z,40.00
2019-03-31T13:06:13.304Z,40.60
2019-03-31T13:08:42.948Z,39.90
2019-03-31T13:11:12.577Z,38.20
2019-03-31T13:13:42.403Z,39.70
2019-03-31T13:16:12.025Z,39.00
2019-03-31T13:18:41.751Z,40.30
2019-03-31T13:21:11.376Z,40.10
2019-03-31T13:23:41.041Z,39.50
2019-03-31T13:26:10.671Z,39.40
2019-03-31T13:28:40.321Z,39.40
2019-03-31T13:31:09.945Z,40.80
2019-03-31T13:33:39.625Z,40.10
2019-03-31T13:36:09.361Z,38.00
2019-03-31T13:38:39.162Z,38.40
2019-03-31T13:41:08.886Z,37.80
2019-03-31T13:43:38.621Z,37.20
2019-03-31T13:46:08.231Z,38.50
2019-03-31T13:48:37.899Z,38.90
2019-03-31T13:51:07.581Z,39.00
2019-03-31T13:53:37.369Z,38.00
2019-03-31T13:56:07.129Z,39.00
2019-03-31T13:58:38.569Z,39.20
2019-03-31T14:01:08.047Z,39.20
2019-03-31T14:03:37.931Z,38.40
2019-03-31T14:06:07.824Z,37.00
2019-03-31T14:08:37.480Z,38.60
2019-03-31T14:11:07.100Z,37.10
2019-03-31T14:13:36.783Z,38.00
2019-03-31T14:16:06.404Z,39.10
2019-03-31T14:18:36.049Z,38.10
2019-03-31T14:21:05.677Z,38.60
2019-03-31T14:23:35.370Z,36.30
2019-03-31T14:26:05.006Z,39.40
2019-03-31T14:28:34.654Z,38.40
2019-03-31T14:31:04.358Z,38.70
2019-03-31T14:33:34.293Z,38.50
2019-03-31T14:36:03.994Z,38.60
2019-03-31T14:38:39.915Z,38.00
2019-03-31T14:41:04.971Z,37.60
2019-03-31T14:43:34.701Z,39.00
2019-03-31T14:46:04.465Z,38.90
2019-03-31T14:48:34.109Z,37.30
2019-03-31T14:51:03.747Z,37.00
2019-03-31T14:53:33.388Z,37.80
2019-03-31T14:56:03.005Z,38.50
2019-03-31T14:58:32.909Z,37.00
2019-03-31T15:01:02.509Z,39.10
2019-03-31T15:03:32.266Z,39.70
2019-03-31T15:06:01.909Z,39.00
2019-03-31T15:08:31.553Z,38.10
2019-03-31T15:11:01.175Z,38.10
2019-03-31T15:13:30.827Z,38.40
2019-03-31T15:16:00.445Z,38.70
2019-03-31T15:18:30.113Z,38.60
2019-03-31T15:20:59.736Z,38.50
2019-03-31T15:23:29.566Z,38.20
2019-03-31T15:25:59.245Z,38.40
2019-03-31T15:28:28.906Z,39.40
2019-03-31T15:30:58.601Z,39.10
2019-03-31T15:33:28.365Z,38.50
2019-03-31T15:35:58.023Z,40.40
2019-03-31T15:38:27.660Z,42.00
2019-03-31T15:40:57.320Z,42.30
2019-03-31T15:43:27.148Z,40.00
2019-03-31T15:45:56.797Z,41.60
2019-03-31T15:48:26.434Z,40.70
2019-03-31T15:50:56.146Z,40.80
2019-03-31T15:53:25.813Z,39.70
2019-03-31T15:55:55.465Z,40.20
2019-03-31T15:58:25.159Z,40.80
2019-03-31T16:00:54.818Z,40.40
2019-03-31T16:03:24.541Z,40.80
2019-03-31T16:05:54.195Z,41.30
2019-03-31T16:08:23.825Z,41.70
2019-03-31T16:10:53.477Z,42.00
2019-03-31T16:13:23.165Z,42.30
2019-03-31T16:15:52.828Z,43.20
2019-03-31T16:18:22.464Z,42.50
2019-03-31T16:20:52.117Z,41.00
2019-03-31T16:23:23.224Z,42.30
2019-03-31T16:25:59.651Z,42.40
2019-03-31T16:28:29.282Z,40.70
2019-03-31T16:30:58.925Z,41.40
2019-03-31T16:33:28.717Z,41.10
2019-03-31T16:35:58.369Z,41.90
2019-03-31T16:38:27.991Z,41.10
2019-03-31T16:40:57.637Z,41.50
2019-03-31T16:43:27.345Z,40.50
2019-03-31T16:45:56.998Z,42.10
2019-03-31T16:48:26.625Z,42.70
2019-03-31T16:50:56.274Z,42.30
2019-03-31T16:53:28.950Z,44.20
2019-03-31T16:55:58.628Z,44.10
2019-03-31T16:58:28.257Z,42.60
2019-03-31T17:00:57.910Z,42.00
2019-03-31T17:03:27.712Z,42.50
2019-03-31T17:05:57.302Z,43.10
2019-03-31T17:08:26.928Z,43.00
2019-03-31T17:10:56.577Z,42.40
2019-03-31T17:13:26.297Z,43.40
2019-03-31T17:15:55.945Z,44.50
2019-03-31T17:18:25.581Z,43.90
2019-03-31T17:20:55.246Z,43.30
2019-03-31T17:23:25.072Z,42.60
2019-03-31T17:25:55.276Z,43.30
2019-03-31T17:28:24.906Z,43.80
2019-03-31T17:30:54.617Z,43.50
2019-03-31T17:33:24.246Z,43.60
2019-03-31T17:35:53.897Z,43.30
2019-03-31T17:38:23.531Z,44.90
2019-03-31T17:40:53.177Z,45.70
2019-03-31T17:43:22.914Z,45.70
2019-03-31T17:45:52.565Z,45.80
2019-03-31T17:48:22.196Z,45.80
2019-03-31T17:50:51.917Z,45.50
2019-03-31T17:53:21.542Z,46.20
2019-03-31T17:55:51.193Z,47.80
2019-03-31T17:58:20.833Z,48.10
2019-03-31T18:00:50.563Z,47.20
2019-03-31T18:03:20.279Z,48.00
2019-03-31T18:05:49.937Z,49.70
2019-03-31T18:08:19.566Z,50.50
2019-03-31T18:10:49.221Z,52.40
2019-03-31T18:13:18.901Z,53.20
2019-03-31T18:15:48.560Z,54.10
2019-03-31T18:18:18.184Z,54.00
2019-03-31T18:20:47.847Z,54.10
2019-03-31T18:23:17.630Z,53.70
2019-03-31T18:25:47.283Z,53.70
2019-03-31T18:28:16.914Z,53.80
2019-03-31T18:30:46.568Z,55.50
2019-03-31T18:33:16.229Z,57.00
2019-03-31T18:35:45.882Z,55.80
2019-03-31T18:38:15.546Z,55.50
2019-03-31T18:40:45.173Z,55.40
2019-03-31T18:43:14.892Z,57.10
2019-03-31T18:45:44.614Z,58.70
2019-03-31T18:48:14.257Z,59.70
2019-03-31T18:50:43.905Z,59.60
2019-03-31T18:53:15.350Z,58.50
2019-03-31T18:55:49.766Z,59.00
2019-03-31T18:58:26.814Z,60.40
2019-03-31T19:00:58.304Z,63.50
2019-03-31T19:03:30.002Z,66.70
2019-03-31T19:06:04.017Z,65.80
2019-03-31T19:08:47.241Z,65.70
2019-03-31T19:11:30.437Z,66.50
2019-03-31T19:14:18.527Z,65.40
2019-03-31T19:16:50.002Z,66.60
2019-03-31T19:19:21.461Z,64.60
2019-03-31T19:22:07.829Z,67.50
2019-03-31T19:24:51.510Z,64.60
2019-03-31T19:27:34.642Z,59.00
2019-03-31T19:30:10.834Z,58.00
2019-03-31T19:32:48.022Z,55.70
2019-03-31T19:35:22.294Z,55.10
2019-03-31T19:41:04.332Z,54.00
2019-03-31T19:43:39.465Z,54.30
2019-03-31T19:46:25.786Z,55.80
2019-03-31T19:49:06.006Z,55.40
2019-03-31T19:51:40.142Z,54.80
2019-03-31T19:54:11.425Z,57.70
2019-03-31T19:56:48.569Z,56.30
2019-03-31T19:59:19.853Z,55.90
2019-03-31T20:02:03.001Z,56.60
2019-03-31T20:04:40.081Z,58.00
2019-03-31T20:07:27.981Z,56.60
2019-03-31T20:09:59.261Z,57.00
2019-03-31T20:12:48.893Z,56.60
2019-03-31T20:15:20.166Z,56.00
2019-03-31T20:17:51.573Z,55.70
2019-03-31T20:20:32.169Z,55.60
2019-03-31T20:23:19.677Z,55.80
2019-03-31T20:25:59.901Z,56.80
2019-03-31T20:28:49.397Z,56.50
2019-03-31T20:31:26.682Z,58.70
2019-03-31T20:34:13.224Z,58.50
2019-03-31T20:36:56.285Z,57.60
2019-03-31T20:39:56.006Z,58.90
2019-03-31T20:42:17.469Z,60.50
2019-03-31T20:44:47.114Z,62.30
2019-03-31T20:47:16.782Z,62.70
2019-03-31T20:49:46.504Z,64.10
2019-03-31T20:52:16.162Z,63.60
2019-03-31T20:54:45.818Z,67.50
2019-03-31T20:57:15.449Z,70.90
2019-03-31T20:59:45.261Z,73.70
2019-03-31T21:02:15.090Z,73.90
2019-03-31T21:04:44.744Z,72.90
2019-03-31T21:07:14.374Z,73.90
2019-03-31T21:09:45.329Z,71.80
2019-03-31T21:12:15.133Z,76.70
2019-03-31T21:14:44.794Z,78.40
2019-03-31T21:17:14.428Z,81.30
2019-03-31T21:19:44.817Z,79.20
2019-03-31T21:22:14.484Z,79.90
2019-03-31T21:24:44.103Z,90.30
2019-03-31T21:27:13.743Z,90.20
2019-03-31T21:29:43.389Z,87.60
2019-03-31T21:32:13.049Z,85.30
2019-03-31T21:34:42.706Z,91.30
2019-03-31T21:37:12.337Z,93.40
2019-03-31T21:39:41.993Z,93.50
2019-03-31T21:42:11.625Z,90.80
2019-03-31T21:44:41.282Z,91.60
2019-03-31T21:47:10.915Z,90.90
2019-03-31T21:49:40.661Z,91.90
2019-03-31T21:52:10.298Z,91.30
2019-03-31T21:54:39.958Z,92.60
2019-03-31T21:57:09.585Z,93.30
2019-03-31T21:59:39.286Z,93.90
2019-03-31T22:02:08.990Z,91.40
2019-03-31T22:04:38.641Z,90.90
2019-03-31T22:07:08.263Z,96.10
2019-03-31T22:09:37.925Z,97.10
2019-03-31T22:12:07.541Z,96.80
2019-03-31T22:14:37.189Z,98.00
2019-03-31T22:17:07.388Z,96.90
2019-03-31T22:19:37.046Z,94.60
2019-03-31T22:22:06.677Z,95.40
2019-03-31T22:24:36.335Z,93.90
2019-03-31T22:27:05.962Z,94.70
2019-03-31T22:29:35.685Z,98.10
2019-03-31T22:32:05.317Z,97.70
2019-03-31T22:34:34.960Z,97.10
2019-03-31T22:37:04.653Z,99.50
2019-03-31T22:39:35.520Z,99.90
2019-03-31T22:42:05.161Z,98.80
2019-03-31T22:44:34.811Z,99.90
2019-03-31T22:47:04.599Z,99.90
2019-03-31T22:49:34.349Z,99.90
2019-03-31T22:52:04.048Z,99.90
2019-03-31T22:54:33.697Z,99.90
2019-03-31T22:57:03.496Z,99.90
2019-03-31T22:59:33.209Z,99.90
2019-03-31T23:02:03.305Z,99.90
2019-03-31T23:04:32.957Z,99.90
2019-03-31T23:07:02.594Z,99.90
2019-03-31T23:09:34.407Z,99.90
2019-03-31T23:12:03.515Z,99.90
2019-03-31T23:14:33.137Z,99.90
2019-03-31T23:17:02.788Z,99.90
2019-03-31T23:19:32.501Z,99.90
2019-03-31T23:22:02.147Z,99.90
2019-03-31T23:24:31.778Z,99.90
2019-03-31T23:27:01.433Z,99.90
2019-03-31T23:29:31.139Z,99.20
2019-03-31T23:32:00.789Z,99.90
2019-03-31T23:34:30.408Z,99.90
2019-03-31T23:37:00.061Z,99.90
2019-03-31T23:39:29.762Z,99.90
2019-03-31T23:41:59.410Z,99.90
2019-03-31T23:44:29.033Z,99.90
2019-03-31T23:46:58.690Z,99.90
2019-03-31T23:49:28.322Z,99.90
2019-03-31T23:51:57.971Z,99.90
2019-03-31T23:54:27.647Z,99.90
2019-03-31T23:56:57.242Z,99.90
2019-03-31T23:59:27.022Z,99.90
